Time;durP1;ratioP1;P1;durP2;ratioP2;P2;SDS_P1;SDS_P2;PMS_P1;PMS_P2;Temp;Humidity;BMP_temperature;BMP_pressure;BME280_temperature;BME280_humidity;BME280_pressure;Samples;Min_cycle;Max_cycle;Signal;HPM_P1;HPM_P2
2024/01/02 00:01:26;;;;;;;25.93;15.00;;;4.50;93.70;;;;;;5062903;28;20184;-90
2024/01/02 00:03:51;;;;;;;31.97;15.20;;;4.50;93.70;;;;;;5063727;28;20174;-90
2024/01/02 00:06:17;;;;;;;26.63;9.83;;;4.40;93.70;;;;;;5063241;28;20200;-89
2024/01/02 00:08:43;;;;;;;25.77;9.27;;;4.50;93.70;;;;;;5081262;28;20167;-90
2024/01/02 00:11:09;;;;;;;32.57;15.07;;;4.50;93.70;;;;;;5081036;28;20184;-89
2024/01/02 00:13:35;;;;;;;33.73;15.27;;;4.50;93.70;;;;;;5064541;28;20195;-90
2024/01/02 00:16:01;;;;;;;23.40;13.77;;;4.50;93.70;;;;;;5064487;28;20168;-90
2024/01/02 00:18:26;;;;;;;26.43;9.90;;;4.50;93.60;;;;;;5064346;28;20180;-90
2024/01/02 00:20:52;;;;;;;35.97;10.10;;;4.40;93.60;;;;;;5075938;28;25100;-90
2024/01/02 00:23:17;;;;;;;30.83;16.60;;;4.50;93.70;;;;;;5060265;28;20171;-89
2024/01/02 00:25:43;;;;;;;32.87;17.70;;;4.40;93.60;;;;;;5051131;28;20207;-89
2024/01/02 00:28:10;;;;;;;34.33;17.47;;;4.40;93.50;;;;;;5060906;28;20191;-89
2024/01/02 00:30:35;;;;;;;31.33;11.40;;;4.40;93.60;;;;;;5060786;28;20206;-89
2024/01/02 00:33:04;;;;;;;27.10;9.87;;;4.40;93.60;;;;;;5060644;28;20197;-90
2024/01/02 00:35:30;;;;;;;30.13;11.70;;;4.40;93.70;;;;;;5060284;28;20164;-90
2024/01/02 00:37:55;;;;;;;30.63;10.40;;;4.40;93.70;;;;;;5060992;28;20236;-91
2024/01/02 00:40:21;;;;;;;23.93;9.73;;;4.40;93.70;;;;;;5056802;28;20211;-90
2024/01/02 00:42:47;;;;;;;30.37;9.97;;;4.40;93.70;;;;;;5055656;28;20184;-90
2024/01/02 00:45:12;;;;;;;31.40;10.17;;;4.30;93.60;;;;;;5057012;28;20180;-90
2024/01/02 00:47:38;;;;;;;33.77;10.87;;;4.30;93.60;;;;;;5036591;28;20196;-90
2024/01/02 00:50:04;;;;;;;27.30;11.13;;;4.30;93.60;;;;;;5036659;28;20208;-90
2024/01/02 00:52:29;;;;;;;39.60;13.10;;;4.30;93.60;;;;;;5037872;28;20182;-89
2024/01/02 00:54:55;;;;;;;36.97;11.37;;;4.20;93.60;;;;;;5036798;28;20175;-90
2024/01/02 00:57:21;;;;;;;29.10;10.93;;;4.20;93.60;;;;;;5035786;28;20181;-89
2024/01/02 00:59:46;;;;;;;27.57;11.37;;;4.10;93.60;;;;;;5036456;28;20292;-87
2024/01/02 01:02:12;;;;;;;29.70;11.67;;;4.10;93.60;;;;;;5037107;28;20172;-89
2024/01/02 01:04:42;;;;;;;29.60;17.05;;;4.10;93.60;;;;;;5037013;28;20589;-89
2024/01/02 01:07:08;;;;;;;32.10;19.30;;;4.10;93.70;;;;;;5035583;28;20196;-89
2024/01/02 01:09:33;;;;;;;45.30;21.87;;;4.10;93.70;;;;;;5036609;28;20190;-90
2024/01/02 01:11:59;;;;;;;30.50;18.27;;;4.10;93.80;;;;;;5037118;28;20177;-89
2024/01/02 01:14:24;;;;;;;38.50;21.70;;;4.10;93.80;;;;;;5036370;28;20184;-89
2024/01/02 01:16:50;;;;;;;28.47;18.50;;;4.10;93.80;;;;;;5034707;28;20567;-89
2024/01/02 01:19:15;;;;;;;36.40;19.60;;;4.10;93.90;;;;;;5035872;28;20262;-89
2024/01/02 01:21:41;;;;;;;31.47;16.70;;;4.20;93.90;;;;;;5034612;28;20187;-89
2024/01/02 01:24:06;;;;;;;37.50;18.30;;;4.20;94.00;;;;;;5034948;28;20247;-88
2024/01/02 01:26:32;;;;;;;31.83;18.07;;;4.20;94.00;;;;;;5036218;28;20236;-88
2024/01/02 01:28:58;;;;;;;34.73;17.90;;;4.20;94.00;;;;;;5036449;28;20619;-90
2024/01/02 01:31:25;;;;;;;25.50;16.20;;;4.20;94.00;;;;;;5034203;28;20183;-89
2024/01/02 01:33:50;;;;;;;31.47;16.70;;;4.20;94.00;;;;;;5034331;28;20180;-88
2024/01/02 01:36:16;;;;;;;33.27;17.97;;;4.20;94.00;;;;;;5035066;28;20191;-90
2024/01/02 01:38:41;;;;;;;33.30;16.00;;;4.10;94.00;;;;;;5039552;28;20185;-88
2024/01/02 01:41:07;;;;;;;27.10;15.83;;;4.20;94.00;;;;;;5044328;28;20284;-89
2024/01/02 01:43:32;;;;;;;28.93;10.60;;;4.10;94.00;;;;;;5041897;28;20180;-89
2024/01/02 01:45:58;;;;;;;29.00;10.55;;;4.10;94.00;;;;;;5039057;28;20203;-90
2024/01/02 01:48:23;;;;;;;23.90;18.07;;;4.10;94.00;;;;;;5040336;28;20173;-89
2024/01/02 01:50:50;;;;;;;35.27;21.83;;;4.20;94.00;;;;;;5039464;28;20247;-90
2024/01/02 01:53:16;;;;;;;42.70;11.50;;;4.20;94.00;;;;;;5038387;28;20223;-90
2024/01/02 01:55:42;;;;;;;26.77;11.23;;;4.10;94.00;;;;;;5035664;28;20176;-88
2024/01/02 01:58:08;;;;;;;26.43;10.97;;;4.10;94.00;;;;;;5036064;28;20182;-90
2024/01/02 02:00:34;;;;;;;33.50;19.23;;;4.10;94.00;;;;;;5041342;28;20203;-90
2024/01/02 02:03:00;;;;;;;38.60;21.07;;;4.10;94.00;;;;;;5040159;28;20180;-90
2024/01/02 02:05:28;;;;;;;31.03;10.53;;;4.10;94.00;;;;;;5040526;28;20179;-89
2024/01/02 02:07:57;;;;;;;35.53;11.40;;;4.20;94.00;;;;;;5041711;28;20557;-89
2024/01/02 02:10:23;;;;;;;28.30;10.90;;;4.20;94.00;;;;;;5042905;28;20246;-89
2024/01/02 02:12:49;;;;;;;26.40;10.00;;;4.10;94.00;;;;;;5042143;28;20175;-90
2024/01/02 02:15:14;;;;;;;32.40;10.00;;;4.20;94.00;;;;;;5039270;28;20183;-89
2024/01/02 02:17:40;;;;;;;40.03;11.53;;;4.20;94.00;;;;;;5041025;28;20217;-90
2024/01/02 02:20:06;;;;;;;27.23;10.43;;;4.20;94.00;;;;;;5039665;28;20208;-91
2024/01/02 02:22:36;;;;;;;34.57;9.93;;;4.20;94.10;;;;;;5039855;28;20176;-90
2024/01/02 02:25:03;;;;;;;22.80;9.67;;;4.10;94.00;;;;;;5058733;28;20666;-90
2024/01/02 02:27:29;;;;;;;28.00;11.63;;;4.20;94.00;;;;;;5057141;28;20191;-91
2024/01/02 02:29:55;;;;;;;30.53;10.80;;;4.20;94.00;;;;;;5038951;28;20207;-91
2024/01/02 02:32:22;;;;;;;29.27;10.57;;;4.20;94.10;;;;;;5039440;28;20176;-90
2024/01/02 02:34:48;;;;;;;23.13;11.00;;;4.30;94.00;;;;;;5038683;28;20203;-91
2024/01/02 02:37:13;;;;;;;22.77;9.40;;;4.30;93.90;;;;;;5038374;28;20173;-90
2024/01/02 02:39:39;;;;;;;25.33;9.37;;;4.30;93.90;;;;;;5054975;28;20200;-90
2024/01/02 02:42:04;;;;;;;35.10;21.80;;;4.20;93.80;;;;;;5054020;28;20673;-90
2024/01/02 02:44:31;;;;;;;30.40;20.87;;;4.30;93.80;;;;;;5037019;28;20184;-90
2024/01/02 02:46:57;;;;;;;23.93;20.53;;;4.20;93.70;;;;;;5038445;28;20566;-90
2024/01/02 02:49:23;;;;;;;34.90;22.03;;;4.10;93.60;;;;;;5039303;28;20286;-90
2024/01/02 02:51:48;;;;;;;37.30;22.50;;;4.00;93.60;;;;;;5038736;28;20644;-90
2024/01/02 02:54:14;;;;;;;36.23;22.97;;;4.10;93.70;;;;;;5037787;28;20177;-90
2024/01/02 02:56:40;;;;;;;27.03;21.97;;;4.10;93.60;;;;;;5037295;28;20291;-90
2024/01/02 02:59:05;;;;;;;31.20;21.80;;;4.10;93.60;;;;;;5038329;28;25119;-91
2024/01/02 03:01:31;;;;;;;30.93;22.73;;;4.10;93.60;;;;;;5036753;28;20184;-90
2024/01/02 03:03:57;;;;;;;28.40;22.37;;;4.20;93.60;;;;;;5036044;28;20180;-91
2024/01/02 03:06:23;;;;;;;37.80;24.00;;;4.20;93.60;;;;;;5037869;28;20694;-90
2024/01/02 03:08:48;;;;;;;32.47;23.13;;;4.10;93.50;;;;;;5040881;28;20182;-90
2024/01/02 03:11:14;;;;;;;30.23;23.23;;;4.10;93.50;;;;;;5042420;28;20200;-90
2024/01/02 03:13:39;;;;;;;26.70;21.87;;;4.10;93.50;;;;;;5041500;28;20647;-90
2024/01/02 03:16:09;;;;;;;28.60;21.77;;;4.10;93.60;;;;;;5039419;28;20184;-91
2024/01/02 03:18:35;;;;;;;24.23;11.77;;;4.10;93.60;;;;;;5038741;28;20282;-90
2024/01/02 03:21:00;;;;;;;25.27;10.73;;;4.20;93.70;;;;;;5038421;28;20242;-90
2024/01/02 03:23:26;;;;;;;26.33;11.40;;;4.20;93.60;;;;;;5038062;28;20240;-90
2024/01/02 03:25:51;;;;;;;35.33;24.03;;;4.20;93.60;;;;;;5038645;28;20214;-90
2024/01/02 03:28:17;;;;;;;33.13;23.20;;;4.20;93.50;;;;;;5039107;28;20224;-90
2024/01/02 03:30:42;;;;;;;40.60;12.37;;;4.20;93.40;;;;;;5040595;28;20287;-90
2024/01/02 03:33:08;;;;;;;24.90;11.10;;;4.20;93.40;;;;;;5037282;28;20237;-91
2024/01/02 03:35:33;;;;;;;33.43;14.37;;;4.30;93.30;;;;;;5037821;28;20184;-91
2024/01/02 03:37:59;;;;;;;34.67;22.93;;;4.20;93.30;;;;;;5039162;28;20540;-90
2024/01/02 03:40:24;;;;;;;31.40;22.83;;;4.20;93.30;;;;;;5037575;28;20569;-88
2024/01/02 03:42:50;;;;;;;24.80;10.97;;;4.20;93.30;;;;;;5034553;28;20562;-89
2024/01/02 03:45:16;;;;;;;29.87;10.20;;;4.30;93.30;;;;;;5035571;28;20683;-91
2024/01/02 03:47:42;;;;;;;26.60;10.40;;;4.30;93.30;;;;;;5035832;28;20205;-90
2024/01/02 03:50:07;;;;;;;30.77;11.97;;;4.30;93.20;;;;;;5035926;28;20572;-91
2024/01/02 03:52:34;;;;;;;28.53;12.20;;;4.30;93.20;;;;;;5036464;28;20230;-91
2024/01/02 03:54:59;;;;;;;30.30;10.73;;;4.30;93.10;;;;;;5037574;28;20186;-91
2024/01/02 03:57:26;;;;;;;24.53;10.43;;;4.40;93.10;;;;;;5039485;28;25120;-90
2024/01/02 03:59:52;;;;;;;27.27;10.23;;;4.40;93.10;;;;;;5039251;28;20299;-90
2024/01/02 04:02:18;;;;;;;27.40;10.23;;;4.40;93.10;;;;;;5040266;28;20187;-89
2024/01/02 04:04:44;;;;;;;24.97;9.30;;;4.40;93.10;;;;;;5040112;28;20196;-90
2024/01/02 04:07:09;;;;;;;29.50;10.63;;;4.50;93.10;;;;;;5056102;28;20196;-91
2024/01/02 04:09:35;;;;;;;28.40;11.40;;;4.40;93.00;;;;;;5040043;28;20212;-90
2024/01/02 04:12:00;;;;;;;31.77;10.27;;;4.50;93.00;;;;;;5039080;28;20183;-89
2024/01/02 04:14:26;;;;;;;26.37;9.77;;;4.50;93.00;;;;;;5039527;28;20215;-90
2024/01/02 04:16:52;;;;;;;34.80;10.23;;;4.50;92.90;;;;;;5055756;28;20184;-92
2024/01/02 04:19:17;;;;;;;27.93;18.80;;;4.50;92.90;;;;;;5041617;28;20247;-90
2024/01/02 04:21:43;;;;;;;23.30;19.40;;;4.70;92.80;;;;;;5040913;28;20191;-91
2024/01/02 04:24:09;;;;;;;28.27;19.20;;;4.60;92.70;;;;;;5042975;28;20322;-90
2024/01/02 04:26:34;;;;;;;29.70;20.33;;;4.60;92.60;;;;;;5039609;28;20254;-90
2024/01/02 04:29:01;;;;;;;26.10;19.33;;;4.70;92.60;;;;;;5038402;28;20187;-90
2024/01/02 04:31:27;;;;;;;35.80;20.90;;;4.70;92.50;;;;;;5038496;28;20267;-91
2024/01/02 04:33:52;;;;;;;31.17;20.43;;;4.80;92.50;;;;;;5038967;28;20619;-90
2024/01/02 04:36:18;;;;;;;32.53;21.13;;;4.80;92.40;;;;;;5039034;28;20181;-89
2024/01/02 04:38:43;;;;;;;31.53;20.07;;;4.80;92.20;;;;;;5038654;28;20187;-90
2024/01/02 04:41:09;;;;;;;34.27;21.73;;;4.80;92.20;;;;;;5040054;28;20306;-91
2024/01/02 04:43:34;;;;;;;28.23;19.10;;;4.80;92.00;;;;;;5040362;28;20184;-91
2024/01/02 04:46:00;;;;;;;24.20;19.87;;;4.80;92.00;;;;;;5039804;28;20197;-89
2024/01/02 04:48:26;;;;;;;21.23;17.97;;;4.80;91.90;;;;;;5039607;28;20184;-89
2024/01/02 04:50:51;;;;;;;27.63;19.90;;;4.80;91.90;;;;;;5039417;28;20200;-91
2024/01/02 04:53:17;;;;;;;26.00;18.47;;;4.80;91.90;;;;;;5038509;28;20172;-91
2024/01/02 04:55:43;;;;;;;17.87;10.43;;;4.80;91.80;;;;;;5038845;28;20178;-90
2024/01/02 04:58:08;;;;;;;28.93;9.23;;;4.80;91.80;;;;;;5038052;28;20180;-91
2024/01/02 05:00:34;;;;;;;27.03;14.57;;;4.80;91.70;;;;;;5054968;28;20193;-91
2024/01/02 05:03:00;;;;;;;21.90;19.70;;;4.80;91.70;;;;;;5038740;28;20608;-91
2024/01/02 05:05:26;;;;;;;24.03;20.73;;;4.80;91.60;;;;;;5039947;28;20175;-90
2024/01/02 05:07:51;;;;;;;23.10;10.03;;;4.90;91.50;;;;;;5037101;28;20199;-91
2024/01/02 05:10:17;;;;;;;16.83;10.17;;;4.90;91.50;;;;;;5038063;28;20570;-91
2024/01/02 05:12:42;;;;;;;26.57;20.13;;;4.90;91.40;;;;;;5036958;28;20707;-91
2024/01/02 05:15:08;;;;;;;26.37;19.23;;;4.90;91.40;;;;;;5035477;28;25055;-91
2024/01/02 05:17:34;;;;;;;24.47;20.73;;;4.90;91.40;;;;;;5036745;28;20283;-90
2024/01/02 05:19:59;;;;;;;26.70;9.63;;;5.00;91.20;;;;;;5037504;28;20196;-91
2024/01/02 05:22:25;;;;;;;20.60;10.00;;;5.00;91.20;;;;;;5054184;28;20702;-90
2024/01/02 05:24:50;;;;;;;18.03;9.07;;;5.00;91.20;;;;;;5038425;28;20188;-90
2024/01/02 05:27:17;;;;;;;23.83;9.13;;;5.00;91.20;;;;;;5054300;28;20203;-90
2024/01/02 05:29:42;;;;;;;19.27;9.60;;;5.00;91.10;;;;;;5039362;28;20193;-91
2024/01/02 05:32:08;;;;;;;20.33;7.97;;;5.00;91.10;;;;;;5056837;28;20180;-90
2024/01/02 05:34:33;;;;;;;25.17;9.07;;;5.00;91.20;;;;;;5056100;28;20251;-90
2024/01/02 05:36:59;;;;;;;14.67;8.47;;;5.10;91.20;;;;;;5056647;28;20252;-90
2024/01/02 05:39:24;;;;;;;15.77;8.83;;;5.10;91.10;;;;;;5055096;28;20296;-91
2024/01/02 05:41:50;;;;;;;20.63;9.90;;;5.10;91.20;;;;;;5052953;28;20227;-90
2024/01/02 05:44:15;;;;;;;22.60;9.43;;;5.10;91.20;;;;;;5051902;28;20223;-90
2024/01/02 05:46:41;;;;;;;17.70;8.63;;;5.10;91.20;;;;;;5051200;28;20197;-90
2024/01/02 05:49:07;;;;;;;15.67;8.83;;;5.10;91.30;;;;;;5052050;28;20179;-91
2024/01/02 05:51:32;;;;;;;22.07;9.43;;;5.10;91.30;;;;;;5051757;28;20173;-92
2024/01/02 05:53:58;;;;;;;24.50;9.27;;;5.10;91.40;;;;;;5051526;28;20184;-90
2024/01/02 05:56:23;;;;;;;24.53;19.33;;;5.10;91.40;;;;;;5052515;28;20173;-90
2024/01/02 05:58:49;;;;;;;20.43;18.30;;;5.10;91.40;;;;;;5036252;28;20184;-90
2024/01/02 06:01:14;;;;;;;26.67;18.83;;;5.10;91.40;;;;;;5035756;28;20243;-90
2024/01/02 06:03:40;;;;;;;24.43;18.63;;;5.10;91.50;;;;;;5035645;28;20215;-92
2024/01/02 06:06:06;;;;;;;24.40;18.70;;;5.10;91.50;;;;;;5036315;28;20261;-91
2024/01/02 06:08:32;;;;;;;25.37;19.37;;;5.00;91.50;;;;;;5035889;28;20176;-90
2024/01/02 06:10:57;;;;;;;21.80;19.23;;;5.10;91.50;;;;;;5036155;28;20620;-90
2024/01/02 06:13:23;;;;;;;24.07;19.00;;;5.10;91.60;;;;;;5037140;28;20218;-90
2024/01/02 06:15:49;;;;;;;30.27;18.70;;;5.10;91.60;;;;;;5036081;28;20226;-90
2024/01/02 06:18:14;;;;;;;21.50;19.13;;;5.10;91.60;;;;;;5035552;28;20203;-91
2024/01/02 06:20:40;;;;;;;21.20;19.03;;;5.10;91.60;;;;;;5036922;28;20254;-91
2024/01/02 06:23:06;;;;;;;25.70;18.23;;;5.10;91.60;;;;;;5036789;28;20176;-92
2024/01/02 06:25:32;;;;;;;24.03;16.33;;;5.10;91.70;;;;;;5036122;28;20663;-91
2024/01/02 06:27:59;;;;;;;24.70;16.83;;;5.10;91.70;;;;;;5036997;28;20209;-91
2024/01/02 06:30:24;;;;;;;20.63;18.50;;;5.10;91.70;;;;;;5037680;28;20327;-91
2024/01/02 06:32:50;;;;;;;23.50;8.43;;;5.10;91.70;;;;;;5038438;28;20200;-89
2024/01/02 06:35:15;;;;;;;24.30;8.00;;;5.10;91.70;;;;;;5036929;28;20203;-91
2024/01/02 06:37:41;;;;;;;22.80;8.13;;;5.10;91.70;;;;;;5052749;28;20183;-90
2024/01/02 06:40:08;;;;;;;21.63;19.43;;;5.10;91.70;;;;;;5052283;28;20208;-90
2024/01/02 06:42:34;;;;;;;31.43;19.77;;;5.10;91.90;;;;;;5045478;28;20181;-90
2024/01/02 06:45:00;;;;;;;28.87;12.13;;;5.10;91.80;;;;;;5058300;28;20195;-90
2024/01/02 06:47:25;;;;;;;19.60;8.00;;;5.10;91.90;;;;;;5057997;28;20276;-90
2024/01/02 06:49:51;;;;;;;17.13;10.30;;;5.10;92.00;;;;;;5074646;28;20193;-90
2024/01/02 06:52:16;;;;;;;27.93;17.73;;;5.10;92.00;;;;;;5057925;28;20173;-89
2024/01/02 06:54:43;;;;;;;21.37;19.13;;;5.20;92.10;;;;;;5057927;28;20181;-90
2024/01/02 06:57:08;;;;;;;16.13;7.60;;;5.10;92.10;;;;;;5057382;28;20199;-88
2024/01/02 06:59:34;;;;;;;14.63;7.60;;;5.10;92.20;;;;;;5074289;28;20185;-90
2024/01/02 07:01:59;;;;;;;22.63;8.13;;;5.10;92.30;;;;;;5073262;28;20196;-90
2024/01/02 07:04:25;;;;;;;17.73;7.53;;;5.10;92.40;;;;;;5071347;28;20192;-89
2024/01/02 07:06:52;;;;;;;22.60;7.45;;;5.10;92.50;;;;;;5071010;28;20188;-89
2024/01/02 07:09:18;;;;;;;15.97;6.90;;;5.10;92.50;;;;;;5068763;28;20195;-90
2024/01/02 07:11:44;;;;;;;19.50;6.90;;;5.10;92.60;;;;;;5068541;28;20230;-89
2024/01/02 07:14:10;;;;;;;18.70;6.77;;;5.20;92.60;;;;;;5048564;28;20212;-89
2024/01/02 07:16:36;;;;;;;16.85;7.10;;;5.10;92.60;;;;;;5048341;28;20168;-90
2024/01/02 07:19:01;;;;;;;10.35;6.75;;;5.10;92.70;;;;;;5058971;28;20111;-89
2024/01/02 07:21:27;;;;;;;19.73;8.17;;;5.10;92.80;;;;;;5058524;28;20121;-89
2024/01/02 07:23:52;;;;;;;11.97;7.17;;;5.10;92.90;;;;;;5057241;28;20282;-89
2024/01/02 07:26:18;;;;;;;20.13;6.97;;;5.10;92.90;;;;;;5060023;28;20213;-88
2024/01/02 07:28:44;;;;;;;13.63;5.83;;;5.10;92.90;;;;;;5059308;28;20200;-89
2024/01/02 07:31:10;;;;;;;19.65;6.55;;;5.10;93.00;;;;;;5068261;28;20218;-90
2024/01/02 07:33:36;;;;;;;20.10;12.63;;;5.10;93.10;;;;;;5067170;28;20227;-89
2024/01/02 07:36:02;;;;;;;21.07;14.00;;;5.10;93.10;;;;;;5048343;28;20235;-90
2024/01/02 07:38:27;;;;;;;23.90;15.90;;;5.10;93.20;;;;;;5045071;28;20275;-88
2024/01/02 07:40:54;;;;;;;15.10;13.47;;;5.10;93.20;;;;;;5043171;28;20310;-90
2024/01/02 07:43:19;;;;;;;18.90;13.40;;;5.10;93.30;;;;;;5043184;28;20191;-89
2024/01/02 07:45:46;;;;;;;18.37;13.10;;;5.00;93.30;;;;;;5042028;28;20210;-90
2024/01/02 07:48:12;;;;;;;14.87;11.77;;;5.10;93.30;;;;;;5042057;28;20677;-91
2024/01/02 07:50:37;;;;;;;22.77;12.43;;;5.00;93.30;;;;;;5045320;28;20179;-89
2024/01/02 07:53:03;;;;;;;19.83;12.00;;;5.10;93.40;;;;;;5050365;28;20180;-89
2024/01/02 07:55:28;;;;;;;15.60;12.20;;;5.10;93.40;;;;;;5050653;28;20171;-90
2024/01/02 07:57:54;;;;;;;20.57;12.33;;;5.00;93.50;;;;;;5049590;28;20167;-89
2024/01/02 08:00:19;;;;;;;15.45;12.55;;;5.00;93.60;;;;;;5047297;28;20775;-90
2024/01/02 08:02:45;;;;;;;16.43;11.87;;;5.10;93.60;;;;;;5049857;28;20457;-90
2024/01/02 08:05:10;;;;;;;17.05;11.50;;;5.10;93.60;;;;;;5050804;28;20180;-90
2024/01/02 08:07:36;;;;;;;16.50;11.50;;;5.10;93.70;;;;;;5042550;28;20208;-91
2024/01/02 08:10:03;;;;;;;12.07;6.20;;;5.10;93.70;;;;;;5050608;28;20204;-91
2024/01/02 08:12:29;;;;;;;15.07;6.17;;;5.10;93.70;;;;;;5067672;28;20179;-91
2024/01/02 08:14:54;;;;;;;14.07;10.70;;;5.10;93.70;;;;;;5075907;28;20176;-91
2024/01/02 08:17:23;;;;;;;14.95;11.10;;;5.10;93.70;;;;;;5057004;28;20192;-91
2024/01/02 08:19:50;;;;;;;16.73;10.23;;;5.10;93.70;;;;;;5058957;28;20187;-91
2024/01/02 08:22:17;;;;;;;19.10;7.23;;;5.10;93.80;;;;;;5056598;28;20184;-91
2024/01/02 08:24:43;;;;;;;18.27;6.73;;;5.10;93.80;;;;;;5066424;28;20248;-90
2024/01/02 08:27:08;;;;;;;18.60;10.80;;;5.10;93.80;;;;;;5067808;28;20192;-90
2024/01/02 08:29:34;;;;;;;24.70;10.73;;;5.10;93.80;;;;;;5046036;28;20200;-90
2024/01/02 08:32:00;;;;;;;11.75;5.60;;;5.10;93.80;;;;;;5047105;28;20173;-90
2024/01/02 08:34:25;;;;;;;10.70;6.10;;;5.20;93.80;;;;;;5060609;28;20176;-90
2024/01/02 08:36:51;;;;;;;15.13;6.03;;;5.10;93.80;;;;;;5063007;28;20187;-90
2024/01/02 08:39:17;;;;;;;11.50;6.50;;;5.20;93.80;;;;;;5068151;28;20177;-90
2024/01/02 08:41:42;;;;;;;17.05;6.20;;;5.20;93.80;;;;;;5061947;28;20272;-91
2024/01/02 08:44:08;;;;;;;14.33;6.67;;;5.20;93.80;;;;;;5061543;28;20182;-90
2024/01/02 08:46:34;;;;;;;15.03;6.90;;;5.20;93.80;;;;;;5061254;28;20208;-90
2024/01/02 08:48:59;;;;;;;9.60;6.53;;;5.20;93.90;;;;;;5062719;28;20185;-91
2024/01/02 08:51:25;;;;;;;9.65;5.85;;;5.20;93.80;;;;;;5068241;28;20159;-90
2024/01/02 08:53:50;;;;;;;9.73;6.10;;;5.20;93.80;;;;;;5073915;28;20184;-90
2024/01/02 08:56:16;;;;;;;10.30;6.00;;;5.20;93.80;;;;;;5074209;28;20732;-90
2024/01/02 08:58:42;;;;;;;13.30;6.00;;;5.30;93.80;;;;;;5070902;28;20211;-90
2024/01/02 09:01:17;;;;;;;14.55;5.80;;;5.20;93.80;;;;;;5067227;28;20185;-92
2024/01/02 09:03:43;;;;;;;9.85;5.65;;;5.30;93.80;;;;;;5064223;28;19955;-90
2024/01/02 09:06:08;;;;;;;8.50;5.27;;;5.30;93.70;;;;;;5043099;28;20615;-90
2024/01/02 09:08:34;;;;;;;13.60;9.20;;;5.30;93.60;;;;;;5057216;28;20180;-91
2024/01/02 09:10:59;;;;;;;12.17;10.97;;;5.30;93.60;;;;;;5061092;28;20689;-90
2024/01/02 09:13:25;;;;;;;11.17;9.90;;;5.30;93.60;;;;;;5046394;28;20173;-90
2024/01/02 09:15:51;;;;;;;10.67;9.67;;;5.20;93.50;;;;;;5063287;28;20188;-90
2024/01/02 09:18:17;;;;;;;9.70;8.90;;;5.30;93.60;;;;;;5039378;28;20258;-89
2024/01/02 09:20:44;;;;;;;10.47;9.33;;;5.30;93.60;;;;;;5053057;28;20200;-89
2024/01/02 09:23:10;;;;;;;12.97;8.93;;;5.30;93.60;;;;;;5057104;28;20180;-90
2024/01/02 09:25:39;;;;;;;12.70;8.83;;;5.30;93.60;;;;;;5057017;28;20211;-90
2024/01/02 09:28:08;;;;;;;9.77;9.00;;;5.30;93.60;;;;;;5040315;28;20192;-90
2024/01/02 09:30:34;;;;;;;13.27;8.93;;;5.30;93.60;;;;;;5053988;28;20238;-89
2024/01/02 09:33:00;;;;;;;9.97;9.07;;;5.30;93.60;;;;;;5037787;28;20179;-90
2024/01/02 09:35:25;;;;;;;11.57;8.80;;;5.40;93.70;;;;;;5059498;28;20184;-90
2024/01/02 09:37:51;;;;;;;10.10;9.27;;;5.40;93.70;;;;;;5043760;28;20202;-90
2024/01/02 09:40:29;;;;;;;12.80;9.60;;;5.40;93.70;;;;;;5056635;28;20207;-90
2024/01/02 09:43:21;;;;;;;10.43;9.43;;;5.40;93.70;;;;;;5058144;28;20176;-90
2024/01/02 09:46:06;;;;;;;6.30;5.30;;;5.40;93.70;;;;;;5059999;28;20176;-90
2024/01/02 09:48:52;;;;;;;7.47;5.73;;;5.40;93.60;;;;;;5059085;28;20751;-90
2024/01/02 09:51:52;;;;;;;10.70;9.73;;;5.40;93.60;;;;;;5041542;28;20286;-91
2024/01/02 09:54:40;;;;;;;10.43;9.50;;;5.50;93.60;;;;;;5055905;28;20195;-91
2024/01/02 09:57:34;;;;;;;9.93;5.97;;;5.50;93.60;;;;;;5044136;28;20309;-90
2024/01/02 10:00:18;;;;;;;9.13;5.70;;;5.50;93.50;;;;;;5066447;28;20206;-91
2024/01/02 10:03:10;;;;;;;10.47;9.30;;;5.50;93.60;;;;;;5068477;28;20189;-91
2024/01/02 10:05:53;;;;;;;10.13;9.13;;;5.50;93.60;;;;;;5052352;28;20217;-90
2024/01/02 10:08:41;;;;;;;11.60;9.60;;;5.50;93.60;;;;;;5066123;28;20178;-91
2024/01/02 10:11:42;;;;;;;8.80;5.70;;;5.50;93.50;;;;;;5064136;28;20246;-91
2024/01/02 10:14:24;;;;;;;13.87;5.80;;;5.50;93.50;;;;;;5045211;28;20176;-90
2024/01/02 10:16:59;;;;;;;7.63;5.47;;;5.50;93.50;;;;;;5040651;28;20179;-90
2024/01/02 10:19:49;;;;;;;6.73;5.57;;;5.50;93.50;;;;;;5040660;28;20211;-92
2024/01/02 10:22:24;;;;;;;7.30;5.60;;;5.50;93.50;;;;;;5039422;28;20195;-91
2024/01/02 10:25:05;;;;;;;6.50;5.53;;;5.50;93.50;;;;;;5039167;28;20258;-91
2024/01/02 10:28:12;;;;;;;9.30;6.40;;;5.50;93.50;;;;;;5052617;28;20191;-91
2024/01/02 10:31:12;;;;;;;6.47;5.40;;;5.50;93.50;;;;;;5036898;28;20752;-90
2024/01/02 10:33:48;;;;;;;14.33;5.53;;;5.50;93.50;;;;;;5027033;28;20188;-90
2024/01/02 10:36:20;;;;;;;7.43;5.23;;;5.50;93.50;;;;;;5037458;28;20207;-90
2024/01/02 10:39:18;;;;;;;7.23;5.87;;;5.50;93.50;;;;;;5038106;28;20161;-89
2024/01/02 10:42:03;;;;;;;9.30;5.37;;;5.50;93.60;;;;;;5050270;28;20307;-90
2024/01/02 10:44:48;;;;;;;7.90;5.50;;;5.50;93.60;;;;;;5045593;28;20172;-90
2024/01/02 10:47:21;;;;;;;10.27;8.33;;;5.50;93.60;;;;;;5055436;28;20230;-90
2024/01/02 10:49:59;;;;;;;11.60;8.53;;;5.50;93.60;;;;;;5051481;28;20569;-90
2024/01/02 10:52:29;;;;;;;9.77;8.97;;;5.50;93.50;;;;;;5049829;28;20200;-90
2024/01/02 10:55:13;;;;;;;10.20;8.90;;;5.50;93.60;;;;;;5036128;28;20318;-90
2024/01/02 10:57:49;;;;;;;8.70;7.97;;;5.50;93.60;;;;;;5037386;28;20169;-91
2024/01/02 11:00:22;;;;;;;8.87;8.10;;;5.50;93.60;;;;;;5054861;28;20210;-91
2024/01/02 11:02:57;;;;;;;8.53;7.70;;;5.50;93.70;;;;;;5036224;28;20172;-90
2024/01/02 11:05:40;;;;;;;9.00;7.93;;;5.50;93.70;;;;;;5053442;28;20172;-91
2024/01/02 11:08:14;;;;;;;9.10;8.27;;;5.50;93.80;;;;;;5051838;28;20224;-90
2024/01/02 11:11:07;;;;;;;8.87;8.13;;;5.50;93.80;;;;;;5058410;28;20196;-89
2024/01/02 11:13:36;;;;;;;8.97;8.07;;;5.50;93.90;;;;;;5044869;28;20165;-91
2024/01/02 11:16:20;;;;;;;9.50;8.60;;;5.50;93.90;;;;;;5038832;28;20180;-90
2024/01/02 11:18:50;;;;;;;9.17;8.47;;;5.60;94.00;;;;;;5039707;28;20196;-91
2024/01/02 11:21:15;;;;;;;9.53;8.60;;;5.60;94.00;;;;;;5057145;28;20291;-89
2024/01/02 11:23:42;;;;;;;6.17;5.13;;;5.60;94.00;;;;;;5036455;28;20694;-90
2024/01/02 11:26:20;;;;;;;5.47;4.67;;;5.60;94.00;;;;;;5051644;28;20200;-91
2024/01/02 11:28:49;;;;;;;10.07;8.80;;;5.60;94.10;;;;;;5053258;28;20173;-90
2024/01/02 11:31:16;;;;;;;5.50;5.10;;;5.70;94.10;;;;;;5050025;28;20206;-90
2024/01/02 11:33:53;;;;;;;8.07;5.57;;;5.70;94.10;;;;;;5050045;28;20184;-91
2024/01/02 11:36:25;;;;;;;5.20;4.33;;;5.70;94.10;;;;;;5036178;28;20176;-89
2024/01/02 11:39:07;;;;;;;5.47;4.97;;;5.70;94.10;;;;;;5042920;28;20177;-90
2024/01/02 11:41:41;;;;;;;9.17;8.37;;;5.70;94.00;;;;;;5052805;28;20168;-89
2024/01/02 11:44:38;;;;;;;9.10;8.40;;;5.70;94.10;;;;;;5033752;28;20187;-89
2024/01/02 11:47:28;;;;;;;5.50;5.03;;;5.80;94.10;;;;;;5056646;28;20224;-90
2024/01/02 11:50:01;;;;;;;5.93;4.83;;;5.80;94.10;;;;;;5023564;28;20205;-89
2024/01/02 11:52:27;;;;;;;4.63;4.10;;;5.80;94.10;;;;;;5056100;28;20254;-91
2024/01/02 11:55:12;;;;;;;6.17;4.70;;;5.80;94.10;;;;;;5058454;28;20234;-90
2024/01/02 11:57:52;;;;;;;4.80;4.40;;;5.80;94.20;;;;;;5060685;28;25085;-90
2024/01/02 12:00:53;;;;;;;5.77;4.33;;;5.80;94.20;;;;;;5058035;28;20566;-89
2024/01/02 12:03:22;;;;;;;4.77;4.33;;;5.80;94.20;;;;;;5046798;28;20179;-91
2024/01/02 12:05:50;;;;;;;5.10;4.70;;;5.80;94.20;;;;;;5045138;28;20625;-90
2024/01/02 12:08:21;;;;;;;4.60;4.23;;;5.80;94.20;;;;;;5058236;28;20203;-91
2024/01/02 12:10:54;;;;;;;4.33;4.03;;;5.80;94.40;;;;;;5058509;28;20177;-91
2024/01/02 12:13:58;;;;;;;4.80;4.03;;;5.80;94.40;;;;;;5056283;28;20189;-90
2024/01/02 12:16:26;;;;;;;4.17;3.87;;;5.80;94.50;;;;;;5036962;28;20187;-90
2024/01/02 12:18:52;;;;;;;5.93;4.73;;;5.80;94.50;;;;;;5055111;28;20184;-90
2024/01/02 12:21:22;;;;;;;4.20;3.80;;;5.70;94.50;;;;;;5060706;28;20196;-89
2024/01/02 12:23:49;;;;;;;8.10;6.80;;;5.70;94.60;;;;;;5062440;28;20249;-90
2024/01/02 12:26:20;;;;;;;6.97;6.47;;;5.70;94.70;;;;;;5059261;28;20325;-91
2024/01/02 12:28:46;;;;;;;7.73;7.03;;;5.70;94.70;;;;;;5057734;28;20172;-90
2024/01/02 12:31:29;;;;;;;7.60;7.00;;;5.70;94.70;;;;;;5057091;28;20255;-91
2024/01/02 12:34:09;;;;;;;7.77;7.10;;;5.70;94.70;;;;;;5037295;28;20214;-90
2024/01/02 12:36:47;;;;;;;7.37;6.97;;;5.80;94.70;;;;;;5062914;28;20169;-90
2024/01/02 12:39:16;;;;;;;7.00;6.60;;;5.80;94.70;;;;;;5050440;28;20157;-90
2024/01/02 12:41:51;;;;;;;6.27;5.90;;;5.80;94.70;;;;;;5060743;28;20267;-89
2024/01/02 12:44:19;;;;;;;7.20;6.60;;;5.80;94.70;;;;;;5072791;28;20176;-89
2024/01/02 12:46:47;;;;;;;7.10;6.50;;;5.80;94.80;;;;;;5061405;28;20201;-91
2024/01/02 12:49:35;;;;;;;6.73;6.27;;;5.80;94.70;;;;;;5049925;28;20161;-91
2024/01/02 12:52:02;;;;;;;6.43;6.03;;;5.80;94.70;;;;;;5063580;28;20205;-91